createdAt,value
2018-01-16T00:01:28.769Z,75.90
2018-01-16T00:03:57.057Z,76.50
2018-01-16T00:06:24.612Z,76.60
2018-01-16T00:08:52.131Z,76.30
2018-01-16T00:11:19.691Z,75.50
2018-01-16T00:13:47.201Z,75.90
2018-01-16T00:16:14.755Z,74.80
2018-01-16T00:18:43.218Z,75.60
2018-01-16T00:21:12.522Z,75.50
2018-01-16T00:23:40.806Z,75.80
2018-01-16T00:26:08.322Z,75.80
2018-01-16T00:28:36.865Z,74.90
2018-01-16T00:31:04.388Z,75.00
2018-01-16T00:33:32.700Z,76.00
2018-01-16T00:36:00.226Z,76.00
2018-01-16T00:38:28.535Z,74.30
2018-01-16T00:40:56.078Z,74.40
2018-01-16T00:43:23.625Z,75.20
2018-01-16T00:45:51.147Z,74.80
2018-01-16T00:48:18.698Z,74.80
2018-01-16T00:50:46.254Z,75.10
2018-01-16T00:53:13.786Z,75.30
2018-01-16T00:55:41.343Z,76.10
2018-01-16T00:58:08.883Z,75.30
2018-01-16T01:00:37.214Z,75.40
2018-01-16T01:03:04.742Z,76.20
2018-01-16T01:05:32.308Z,75.10
2018-01-16T01:07:59.826Z,74.80
2018-01-16T01:10:27.356Z,75.90
2018-01-16T01:12:54.907Z,75.50
2018-01-16T01:15:22.433Z,76.10
2018-01-16T01:17:49.977Z,75.80
2018-01-16T01:20:17.503Z,76.50
2018-01-16T01:22:45.059Z,76.30
2018-01-16T01:25:12.585Z,76.40
2018-01-16T01:27:40.138Z,74.80
2018-01-16T01:30:07.666Z,76.30
2018-01-16T01:32:35.190Z,75.50
2018-01-16T01:35:02.755Z,77.20
2018-01-16T01:37:30.579Z,77.20
2018-01-16T01:39:58.124Z,76.70
2018-01-16T01:42:25.652Z,77.90
2018-01-16T01:44:53.968Z,77.00
2018-01-16T01:47:21.486Z,76.40
2018-01-16T01:49:49.005Z,77.50
2018-01-16T01:52:18.489Z,76.80
2018-01-16T01:54:46.006Z,78.00
2018-01-16T01:57:13.567Z,76.90
2018-01-16T01:59:41.085Z,76.50
2018-01-16T02:02:08.665Z,76.70
2018-01-16T02:04:36.190Z,76.00
2018-01-16T02:07:03.737Z,76.70
2018-01-16T02:09:31.250Z,77.50
2018-01-16T02:11:59.548Z,76.20
2018-01-16T02:14:27.871Z,76.40
2018-01-16T02:16:55.393Z,76.40
2018-01-16T02:19:22.939Z,76.60
2018-01-16T02:21:52.189Z,75.50
2018-01-16T02:24:19.734Z,75.50
2018-01-16T02:26:47.262Z,74.70
2018-01-16T02:29:14.828Z,74.70
2018-01-16T02:31:42.346Z,75.20
2018-01-16T02:34:09.875Z,75.50
2018-01-16T02:36:37.442Z,75.20
2018-01-16T02:39:04.978Z,76.20
2018-01-16T02:41:32.529Z,76.40
2018-01-16T02:44:01.038Z,76.60
2018-01-16T02:46:28.594Z,75.60
2018-01-16T02:48:56.115Z,76.20
2018-01-16T02:51:23.665Z,75.90
2018-01-16T02:53:51.947Z,75.90
2018-01-16T02:56:20.446Z,75.90
2018-01-16T02:58:47.994Z,79.50
2018-01-16T03:01:15.522Z,78.10
2018-01-16T03:03:43.070Z,79.50
2018-01-16T03:06:10.602Z,78.50
2018-01-16T03:08:38.138Z,77.50
2018-01-16T03:11:06.619Z,76.50
2018-01-16T03:13:34.180Z,76.10
2018-01-16T03:16:01.699Z,76.20
2018-01-16T03:18:29.218Z,75.50
2018-01-16T03:20:56.762Z,75.50
2018-01-16T03:23:24.303Z,75.10
2018-01-16T03:25:51.862Z,75.70
2018-01-16T03:28:19.413Z,76.40
2018-01-16T03:30:46.978Z,76.50
2018-01-16T03:33:14.502Z,76.80
2018-01-16T03:35:42.058Z,76.00
2018-01-16T03:38:10.354Z,76.10
2018-01-16T03:40:38.649Z,76.00
2018-01-16T03:43:06.207Z,75.90
2018-01-16T03:45:33.726Z,75.80
2018-01-16T03:48:01.275Z,75.70
2018-01-16T03:50:28.801Z,76.20
2018-01-16T03:52:56.366Z,76.30
2018-01-16T03:55:25.316Z,75.90
2018-01-16T03:57:52.867Z,75.50
2018-01-16T04:00:21.162Z,76.30
2018-01-16T04:02:48.691Z,76.30
2018-01-16T04:05:16.245Z,75.60
2018-01-16T04:07:43.767Z,75.20
2018-01-16T04:10:11.316Z,75.00
2018-01-16T04:12:38.838Z,74.40
2018-01-16T04:15:06.517Z,75.30
2018-01-16T04:17:34.043Z,75.40
2018-01-16T04:20:01.586Z,73.80
2018-01-16T04:22:30.066Z,73.40
2018-01-16T04:24:57.626Z,74.00
2018-01-16T04:27:25.151Z,74.20
2018-01-16T04:29:52.695Z,74.60
2018-01-16T04:32:20.234Z,74.30
2018-01-16T04:34:47.755Z,75.50
2018-01-16T04:37:15.312Z,74.50
2018-01-16T04:39:42.837Z,74.20
2018-01-16T04:42:10.391Z,74.70
2018-01-16T04:44:37.922Z,73.70
2018-01-16T04:47:06.811Z,74.20
2018-01-16T04:49:34.354Z,74.10
2018-01-16T04:52:01.926Z,74.40
2018-01-16T04:54:30.222Z,74.20
2018-01-16T04:56:57.827Z,73.90
2018-01-16T04:59:25.344Z,75.90
2018-01-16T05:01:53.791Z,76.30
2018-01-16T05:04:21.340Z,78.00
2018-01-16T05:06:49.791Z,78.80
2018-01-16T05:09:17.330Z,79.30
2018-01-16T05:11:44.853Z,79.60
2018-01-16T05:14:12.395Z,80.20
2018-01-16T05:16:39.908Z,81.10
2018-01-16T05:19:07.463Z,80.40
2018-01-16T05:21:35.937Z,79.70
2018-01-16T05:24:03.490Z,80.30
2018-01-16T05:26:31.776Z,80.70
2018-01-16T05:29:00.298Z,80.60
2018-01-16T05:31:27.819Z,78.90
2018-01-16T05:33:55.343Z,77.70
2018-01-16T05:36:25.605Z,78.30
2018-01-16T05:38:53.119Z,77.90
2018-01-16T05:41:20.670Z,76.90
2018-01-16T05:43:48.967Z,75.60
2018-01-16T05:46:18.231Z,75.70
2018-01-16T05:48:45.761Z,76.10
2018-01-16T05:51:14.262Z,75.20
2018-01-16T05:53:42.750Z,75.90
2018-01-16T05:56:10.302Z,75.90
2018-01-16T05:58:37.827Z,74.80
2018-01-16T06:01:05.384Z,76.70
2018-01-16T06:03:32.904Z,78.10
2018-01-16T06:06:01.280Z,78.10
2018-01-16T06:08:28.798Z,78.00
2018-01-16T06:10:57.332Z,76.70
2018-01-16T06:13:25.632Z,78.20
2018-01-16T06:15:54.151Z,77.60
2018-01-16T06:18:21.725Z,77.20
2018-01-16T06:20:49.251Z,78.10
2018-01-16T06:23:18.742Z,76.70
2018-01-16T06:25:47.223Z,77.00
2018-01-16T06:28:14.765Z,76.80
2018-01-16T06:30:42.278Z,77.30
2018-01-16T06:33:09.849Z,76.40
2018-01-16T06:35:37.366Z,76.10
2018-01-16T06:38:04.918Z,76.60
2018-01-16T06:40:32.438Z,78.10
2018-01-16T06:42:59.961Z,77.30
2018-01-16T06:45:27.514Z,77.30
2018-01-16T06:47:55.022Z,78.90
2018-01-16T06:50:22.570Z,79.80
2018-01-16T06:52:50.102Z,83.10
2018-01-16T06:55:17.647Z,83.70
2018-01-16T06:57:45.158Z,83.40
2018-01-16T07:00:12.714Z,84.60
2018-01-16T07:02:40.238Z,84.70
2018-01-16T07:05:07.778Z,84.40
2018-01-16T07:07:35.298Z,83.80
2018-01-16T07:10:02.858Z,83.60
2018-01-16T07:12:32.129Z,83.00
2018-01-16T07:14:59.654Z,82.90
2018-01-16T07:17:27.213Z,82.50
2018-01-16T07:19:54.744Z,81.50
2018-01-16T07:22:22.296Z,81.00
2018-01-16T07:24:50.803Z,83.10
2018-01-16T07:27:18.351Z,84.10
2018-01-16T07:29:45.903Z,83.20
2018-01-16T07:32:13.450Z,83.00
2018-01-16T07:34:40.988Z,83.90
2018-01-16T07:37:10.498Z,85.80
2018-01-16T07:39:38.022Z,84.30
2018-01-16T07:42:05.538Z,84.80
2018-01-16T07:44:33.083Z,85.00
2018-01-16T07:47:01.375Z,85.60
2018-01-16T07:49:28.918Z,85.40
2018-01-16T07:51:57.206Z,85.50
2018-01-16T07:54:25.749Z,86.10
2018-01-16T07:56:53.270Z,85.50
2018-01-16T07:59:20.835Z,86.00
2018-01-16T08:01:48.373Z,87.60
2018-01-16T08:04:15.913Z,89.10
2018-01-16T08:06:44.200Z,90.60
2018-01-16T08:09:11.739Z,90.60
2018-01-16T08:11:40.064Z,91.30
2018-01-16T08:14:07.599Z,91.30
2018-01-16T08:16:35.138Z,92.80
2018-01-16T08:19:02.658Z,92.90
2018-01-16T08:21:30.219Z,92.50
2018-01-16T08:23:57.733Z,91.90
2018-01-16T08:26:25.289Z,91.70
2018-01-16T08:28:52.811Z,91.40
2018-01-16T08:31:20.333Z,92.30
2018-01-16T08:33:47.867Z,93.10
2018-01-16T08:36:15.403Z,94.20
2018-01-16T08:38:42.966Z,93.50
2018-01-16T08:41:10.507Z,93.80
2018-01-16T08:43:38.069Z,93.70
2018-01-16T08:46:05.590Z,95.20
2018-01-16T08:48:33.138Z,94.70
2018-01-16T08:51:00.657Z,95.20
2018-01-16T08:53:28.962Z,93.90
2018-01-16T08:55:56.474Z,93.90
2018-01-16T08:58:23.994Z,94.30
2018-01-16T09:00:51.540Z,94.20
2018-01-16T09:03:19.834Z,94.30
2018-01-16T09:05:47.389Z,94.30
2018-01-16T09:08:17.158Z,93.60
2018-01-16T09:10:44.711Z,93.10
2018-01-16T09:13:13.007Z,93.20
2018-01-16T09:15:40.538Z,93.20
2018-01-16T09:18:08.099Z,92.60
2018-01-16T09:20:35.622Z,92.50
2018-01-16T09:23:03.170Z,93.60
2018-01-16T09:25:31.699Z,93.70
2018-01-16T09:28:00.185Z,93.50
2018-01-16T09:30:29.302Z,91.80
2018-01-16T09:32:56.844Z,92.00
2018-01-16T09:35:24.367Z,91.70
2018-01-16T09:37:51.887Z,90.50
2018-01-16T09:40:20.382Z,90.40
2018-01-16T09:42:47.896Z,91.10
2018-01-16T09:45:17.398Z,90.50
2018-01-16T09:47:45.711Z,90.30
2018-01-16T09:50:13.271Z,90.20
2018-01-16T09:52:40.809Z,90.10
2018-01-16T09:55:08.355Z,90.50
2018-01-16T09:57:36.728Z,89.50
2018-01-16T10:00:04.242Z,89.50
2018-01-16T10:02:31.782Z,87.20
2018-01-16T10:04:59.302Z,89.50
2018-01-16T10:07:26.862Z,85.60
2018-01-16T10:09:55.279Z,85.90
2018-01-16T10:12:22.825Z,86.00
2018-01-16T10:14:50.347Z,83.90
2018-01-16T10:17:17.890Z,85.90
2018-01-16T10:19:45.410Z,87.70
2018-01-16T10:22:12.942Z,87.30
2018-01-16T10:24:40.503Z,87.70
2018-01-16T10:27:08.811Z,84.40
2018-01-16T10:29:36.366Z,84.30
2018-01-16T10:32:03.973Z,84.30
2018-01-16T10:34:31.535Z,85.50
2018-01-16T10:36:59.076Z,84.80
2018-01-16T10:39:26.638Z,83.60
2018-01-16T10:41:54.162Z,84.20
2018-01-16T10:44:21.921Z,84.20
2018-01-16T10:46:49.433Z,84.30
2018-01-16T10:49:17.768Z,86.80
2018-01-16T10:51:45.278Z,86.90
2018-01-16T10:54:13.572Z,84.20
2018-01-16T10:56:41.134Z,84.10
2018-01-16T10:59:08.658Z,84.10
2018-01-16T11:01:36.216Z,82.40
2018-01-16T11:04:03.752Z,82.80
2018-01-16T11:06:31.311Z,80.40
2018-01-16T11:08:58.837Z,80.80
2018-01-16T11:11:26.378Z,78.90
2018-01-16T11:13:54.662Z,78.80
2018-01-16T11:16:22.210Z,78.80
2018-01-16T11:18:50.494Z,77.40
2018-01-16T11:21:18.014Z,77.50
2018-01-16T11:23:45.562Z,78.10
2018-01-16T11:26:14.011Z,77.70
2018-01-16T11:28:43.491Z,77.70
2018-01-16T11:31:11.023Z,79.10
2018-01-16T11:33:38.568Z,80.20
2018-01-16T11:36:06.102Z,79.70
2018-01-16T11:38:33.661Z,80.10
2018-01-16T11:41:01.193Z,82.10
2018-01-16T11:43:28.790Z,82.00
2018-01-16T11:45:56.316Z,81.80
2018-01-16T11:48:23.864Z,83.50
2018-01-16T11:50:51.403Z,84.70
2018-01-16T11:53:19.015Z,88.80
2018-01-16T11:55:46.567Z,91.10
2018-01-16T11:58:14.091Z,91.90
2018-01-16T12:00:42.413Z,92.60
2018-01-16T12:03:09.938Z,92.60
2018-01-16T12:05:38.440Z,92.70
2018-01-16T12:08:06.911Z,92.90
2018-01-16T12:10:34.451Z,92.90
2018-01-16T12:13:01.970Z,93.30
2018-01-16T12:15:29.532Z,93.20
2018-01-16T12:17:57.050Z,93.50
2018-01-16T12:20:24.612Z,93.70
2018-01-16T12:22:52.142Z,93.00
2018-01-16T12:25:20.426Z,92.80
2018-01-16T12:27:47.991Z,92.90
2018-01-16T12:30:15.540Z,93.40
2018-01-16T12:32:43.091Z,92.80
2018-01-16T12:35:10.614Z,93.10
2018-01-16T12:37:38.179Z,92.70
2018-01-16T12:40:06.623Z,93.00
2018-01-16T12:42:36.190Z,93.40
2018-01-16T12:45:03.710Z,93.00
2018-01-16T12:47:31.264Z,94.00
2018-01-16T12:49:58.782Z,92.60
2018-01-16T12:52:26.328Z,92.70
2018-01-16T12:54:54.828Z,92.70
2018-01-16T12:57:22.355Z,93.70
2018-01-16T12:59:50.674Z,93.50
2018-01-16T13:02:18.218Z,93.40
2018-01-16T13:04:45.758Z,92.40
2018-01-16T13:07:14.086Z,91.90
2018-01-16T13:09:42.592Z,91.90
2018-01-16T13:12:10.106Z,92.20
2018-01-16T13:14:37.642Z,92.50
2018-01-16T13:17:05.179Z,92.80
2018-01-16T13:19:32.713Z,92.90
2018-01-16T13:22:00.240Z,91.30
2018-01-16T13:24:27.813Z,92.30
2018-01-16T13:26:55.334Z,91.00
2018-01-16T13:29:22.855Z,90.80
2018-01-16T13:31:50.402Z,91.00
2018-01-16T13:34:17.925Z,88.60
2018-01-16T13:36:45.474Z,90.90
2018-01-16T13:39:12.992Z,90.80
2018-01-16T13:41:40.544Z,90.50
2018-01-16T13:44:08.062Z,90.70
2018-01-16T13:46:35.614Z,90.60
2018-01-16T13:49:03.146Z,90.50
2018-01-16T13:51:31.474Z,86.40
2018-01-16T13:53:59.001Z,86.40
2018-01-16T13:56:26.531Z,89.20
2018-01-16T13:58:54.868Z,88.50
2018-01-16T14:01:22.394Z,88.20
2018-01-16T14:03:49.952Z,85.20
2018-01-16T14:06:17.472Z,86.30
2018-01-16T14:08:45.288Z,85.30
2018-01-16T14:11:12.806Z,84.80
2018-01-16T14:13:40.347Z,85.40
2018-01-16T14:16:07.862Z,80.00
2018-01-16T14:18:35.436Z,80.80
2018-01-16T14:21:02.958Z,82.70
2018-01-16T14:23:33.231Z,80.80
2018-01-16T14:26:00.769Z,80.80
2018-01-16T14:28:28.285Z,81.90
2018-01-16T14:30:56.597Z,82.60
2018-01-16T14:33:24.118Z,82.70
2018-01-16T14:35:51.663Z,78.70
2018-01-16T14:38:20.161Z,80.00
2018-01-16T14:40:50.444Z,81.40
2018-01-16T14:43:17.962Z,81.40
2018-01-16T14:45:45.502Z,81.60
2018-01-16T14:48:13.023Z,81.00
2018-01-16T14:50:40.572Z,77.20
2018-01-16T14:53:08.130Z,76.80
2018-01-16T14:55:36.631Z,75.90
2018-01-16T14:58:04.156Z,77.80
2018-01-16T15:00:31.674Z,78.20
2018-01-16T15:02:59.227Z,75.10
2018-01-16T15:05:26.746Z,76.00
2018-01-16T15:07:54.298Z,76.50
2018-01-16T15:10:21.815Z,76.80
2018-01-16T15:12:49.370Z,76.40
2018-01-16T15:15:16.885Z,77.90
2018-01-16T15:17:44.422Z,74.70
2018-01-16T15:20:11.954Z,79.10
2018-01-16T15:22:39.506Z,76.10
2018-01-16T15:25:07.045Z,76.20
2018-01-16T15:27:34.574Z,78.00
2018-01-16T15:30:02.115Z,78.60
2018-01-16T15:32:29.634Z,78.20
2018-01-16T15:34:57.954Z,78.10
2018-01-16T15:37:25.484Z,78.00
2018-01-16T15:39:53.027Z,79.30
2018-01-16T15:42:21.319Z,78.00
2018-01-16T15:44:48.866Z,77.90
2018-01-16T15:47:17.158Z,76.50
2018-01-16T15:49:44.709Z,77.10
2018-01-16T15:52:13.008Z,75.30
2018-01-16T15:54:40.530Z,75.50
2018-01-16T15:57:08.083Z,75.70
2018-01-16T15:59:36.370Z,74.00
2018-01-16T16:02:04.682Z,74.50
2018-01-16T16:04:33.198Z,74.50
2018-01-16T16:07:00.739Z,75.60
2018-01-16T16:09:28.256Z,76.10
2018-01-16T16:11:55.846Z,77.30
2018-01-16T16:14:23.376Z,77.40
2018-01-16T16:16:50.926Z,78.80
2018-01-16T16:19:18.573Z,79.50
2018-01-16T16:21:46.090Z,77.70
2018-01-16T16:24:13.648Z,78.80
2018-01-16T16:26:41.182Z,78.30
2018-01-16T16:29:08.722Z,78.00
2018-01-16T16:31:36.250Z,78.30
2018-01-16T16:34:03.782Z,78.00
2018-01-16T16:36:31.334Z,78.80
2018-01-16T16:38:58.866Z,77.90
2018-01-16T16:41:26.418Z,79.40
2018-01-16T16:43:54.703Z,77.20
2018-01-16T16:46:22.271Z,77.10
2018-01-16T16:48:49.806Z,77.20
2018-01-16T16:51:17.326Z,77.40
2018-01-16T16:53:46.855Z,75.30
2018-01-16T16:56:14.374Z,75.30
2018-01-16T16:58:41.920Z,74.50
2018-01-16T17:01:09.450Z,74.20
2018-01-16T17:03:37.008Z,73.10
2018-01-16T17:06:05.295Z,71.40
2018-01-16T17:08:32.839Z,71.30
2018-01-16T17:11:01.171Z,70.80
2018-01-16T17:13:28.700Z,70.80
2018-01-16T17:15:56.258Z,71.30
2018-01-16T17:18:26.973Z,71.00
2018-01-16T17:20:56.871Z,71.10
2018-01-16T17:23:30.276Z,71.80
2018-01-16T17:25:57.829Z,72.00
2018-01-16T17:28:25.373Z,70.20
2018-01-16T17:30:52.958Z,72.40
2018-01-16T17:33:21.260Z,71.70
2018-01-16T17:35:48.851Z,71.70
2018-01-16T17:38:16.386Z,71.60
2018-01-16T17:40:43.902Z,71.30
2018-01-16T17:43:11.454Z,72.40
2018-01-16T17:45:38.996Z,71.80
2018-01-16T17:48:06.565Z,72.70
2018-01-16T17:50:34.107Z,73.00
2018-01-16T17:53:01.715Z,72.60
2018-01-16T17:55:29.281Z,71.50
2018-01-16T17:57:56.831Z,72.40
2018-01-16T18:00:24.365Z,72.80
2018-01-16T18:02:51.970Z,73.80
2018-01-16T18:05:19.513Z,74.50
2018-01-16T18:07:47.051Z,79.00
2018-01-16T18:10:16.561Z,82.50
2018-01-16T18:12:44.084Z,83.60
2018-01-16T18:15:11.650Z,87.20
2018-01-16T18:17:39.192Z,88.70
2018-01-16T18:20:07.757Z,89.40
2018-01-16T18:22:35.292Z,89.00
2018-01-16T18:25:02.840Z,90.10
2018-01-16T18:27:30.676Z,89.70
2018-01-16T18:29:58.209Z,91.70
2018-01-16T18:32:25.755Z,92.50
2018-01-16T18:34:53.327Z,92.00
2018-01-16T18:37:20.886Z,92.60
2018-01-16T18:39:48.423Z,92.30
2018-01-16T18:42:15.957Z,92.20
2018-01-16T18:44:44.239Z,91.30
2018-01-16T18:47:12.780Z,91.30
2018-01-16T18:49:40.319Z,90.80
2018-01-16T18:52:07.867Z,92.00
2018-01-16T18:54:36.375Z,92.50
2018-01-16T18:57:04.046Z,91.60
2018-01-16T18:59:31.592Z,92.20
2018-01-16T19:01:59.119Z,92.00
2018-01-16T19:04:26.880Z,93.60
2018-01-16T19:06:54.419Z,94.00
2018-01-16T19:09:22.301Z,95.40
2018-01-16T19:11:50.120Z,94.80
2018-01-16T19:14:17.679Z,94.80
2018-01-16T19:16:45.202Z,95.60
2018-01-16T19:19:12.815Z,95.60
2018-01-16T19:21:41.102Z,94.50
2018-01-16T19:24:08.670Z,94.50
2018-01-16T19:26:36.227Z,94.80
2018-01-16T19:29:03.750Z,93.60
2018-01-16T19:31:31.296Z,93.20
2018-01-16T19:33:58.843Z,93.30
2018-01-16T19:36:27.367Z,94.40
2018-01-16T19:38:55.070Z,95.30
2018-01-16T19:41:22.598Z,93.30
2018-01-16T19:43:50.151Z,92.80
2018-01-16T19:46:18.442Z,94.70
2018-01-16T19:48:47.966Z,94.90
2018-01-16T19:51:16.473Z,95.10
2018-01-16T19:53:44.986Z,95.50
2018-01-16T19:56:13.272Z,95.00
2018-01-16T19:58:41.855Z,95.00
2018-01-16T20:01:09.399Z,95.20
2018-01-16T20:03:37.781Z,93.80
2018-01-16T20:06:06.110Z,94.00
2018-01-16T20:08:33.642Z,93.90
2018-01-16T20:11:01.424Z,94.10
2018-01-16T20:13:28.946Z,93.50
2018-01-16T20:15:57.266Z,94.10
2018-01-16T20:18:24.812Z,94.10
2018-01-16T20:20:53.381Z,95.00
2018-01-16T20:23:20.924Z,94.40
2018-01-16T20:25:49.212Z,92.30
2018-01-16T20:28:17.575Z,92.40
2018-01-16T20:30:47.208Z,92.80
2018-01-16T20:33:14.805Z,92.60
2018-01-16T20:35:42.355Z,92.40
2018-01-16T20:38:09.907Z,90.20
2018-01-16T20:40:37.503Z,90.80
2018-01-16T20:43:06.014Z,89.30
2018-01-16T20:45:34.625Z,86.40
2018-01-16T20:48:02.194Z,86.50
2018-01-16T20:50:30.700Z,87.00
2018-01-16T20:52:58.222Z,84.90
2018-01-16T20:55:25.766Z,85.20
2018-01-16T20:57:53.290Z,84.20
2018-01-16T21:00:20.842Z,83.30
2018-01-16T21:02:48.372Z,81.20
2018-01-16T21:05:16.019Z,85.10
2018-01-16T21:07:43.560Z,83.30
2018-01-16T21:10:11.136Z,84.10
2018-01-16T21:12:38.681Z,85.80
2018-01-16T21:15:06.403Z,83.20
2018-01-16T21:17:34.040Z,85.60
2018-01-16T21:20:01.583Z,83.40
2018-01-16T21:22:29.283Z,80.60
2018-01-16T21:24:56.803Z,81.10
2018-01-16T21:27:24.358Z,81.20
2018-01-16T21:29:53.023Z,79.40
2018-01-16T21:32:20.546Z,81.50
2018-01-16T21:34:50.071Z,80.80
2018-01-16T21:37:17.630Z,80.40
2018-01-16T21:39:45.163Z,81.70
2018-01-16T21:42:13.731Z,80.30
2018-01-16T21:44:41.243Z,80.30
2018-01-16T21:47:08.795Z,81.30
2018-01-16T21:49:36.316Z,80.60
2018-01-16T21:52:03.830Z,78.20
2018-01-16T21:54:31.376Z,78.40
2018-01-16T21:56:58.905Z,77.90
2018-01-16T21:59:26.454Z,82.40
2018-01-16T22:01:53.979Z,77.00
2018-01-16T22:04:21.580Z,78.40
2018-01-16T22:06:50.063Z,78.70
2018-01-16T22:09:17.611Z,77.60
2018-01-16T22:11:45.137Z,76.30
2018-01-16T22:14:12.668Z,76.50
2018-01-16T22:16:40.228Z,77.90
2018-01-16T22:19:08.755Z,78.00
2018-01-16T22:21:36.319Z,75.70
2018-01-16T22:24:04.815Z,76.00
2018-01-16T22:26:33.503Z,75.90
2018-01-16T22:29:02.582Z,75.30
2018-01-16T22:31:31.079Z,75.30
2018-01-16T22:33:59.402Z,74.00
2018-01-16T22:36:27.948Z,74.10
2018-01-16T22:38:55.499Z,73.50
2018-01-16T22:41:23.027Z,73.60
2018-01-16T22:43:51.510Z,73.10
2018-01-16T22:46:20.114Z,72.70
2018-01-16T22:48:48.237Z,72.40
2018-01-16T22:51:17.007Z,73.00
2018-01-16T22:53:44.966Z,73.30
2018-01-16T22:56:12.860Z,74.10
2018-01-16T22:58:41.319Z,75.00
2018-01-16T23:01:09.842Z,76.10
2018-01-16T23:03:37.775Z,76.70
2018-01-16T23:06:05.538Z,76.30
2018-01-16T23:08:34.055Z,76.20
2018-01-16T23:11:01.870Z,76.80
2018-01-16T23:13:31.181Z,81.70
2018-01-16T23:15:59.475Z,81.70
2018-01-16T23:18:27.033Z,81.80
2018-01-16T23:20:54.589Z,82.80
2018-01-16T23:23:24.266Z,80.70
2018-01-16T23:25:53.167Z,83.60
2018-01-16T23:28:21.007Z,86.00
2018-01-16T23:30:50.493Z,87.30
2018-01-16T23:33:18.347Z,89.70
2018-01-16T23:35:47.323Z,91.10
2018-01-16T23:38:15.552Z,90.50
2018-01-16T23:40:44.168Z,90.20
2018-01-16T23:43:12.488Z,88.30
2018-01-16T23:45:40.682Z,88.80
2018-01-16T23:48:09.315Z,85.40
2018-01-16T23:50:37.386Z,89.50
2018-01-16T23:53:05.444Z,90.50
2018-01-16T23:55:33.625Z,92.00
2018-01-16T23:58:02.831Z,93.30
